Impacts METAR Board INFO
IDs:

KEWR - Newark Intl, NJ, US

Updated at: 0640 UTC 23 Feb 2018
Potential Impact None Slight Moderate High
Time22/18Z 22/19Z 22/20Z 22/21Z 22/22Z 22/23Z 23/00Z 23/01Z 23/02Z 23/03Z 23/04Z 23/05Z 23/06Z
VIS10 10 3 2 2 7 10 10 10 10 10 10 10
CIG36 38 23 25 8 11 11 30 15 15 20 17 12
CoverOVCOVCOVCOVCOVCOVCOVCOVCOVCOVCOVCOVCOVC
FltCatVFRVFRMVFRIFRIFRMVFRMVFRMVFRMVFRMVFRMVFRMVFRMVFR
WX---RA-RA-RA BR-RA BR-RA--------------
WDir60404010102030704040504040
WSpd8 11 12 13 13 10 10 8 8 7 8 6 9
WGst-- -- -- -- -- -- -- -- -- -- -- -- --
Raw hourly METARs
KEWR 221751Z 06008KT 10SM OVC036 07/01 A3056 RMK AO2 RAE1652B36E51 SLP347 P0000 60001 T00720011 10078 20061 58017
KEWR 221851Z 04011KT 10SM -RA FEW032 OVC038 06/01 A3055 RMK AO2 RAB03 SLP343 P0000 T00610006
KEWR 221951Z 04012KT 3SM -RA BKN023 OVC030 04/02 A3059 RMK AO2 SFC VIS 4 SLP359 P0002 T00440017
KEWR 222051Z 01013KT 2SM -RA BR FEW009 SCT015 OVC025 04/03 A3060 RMK AO2 SFC VIS 2 1/2 PRESRR SLP361 SCT V BKN P0002 60004 T00440028 51019
KEWR 222151Z 01013KT 2SM -RA BR BKN008 BKN015 OVC024 03/02 A3064 RMK AO2 SFC VIS 2 1/2 SLP373 P0006 T00330022
KEWR 222254Z 02010KT 7SM -RA BKN011 OVC017 03/02 A3065 RMK AO2 BKN V SCT P0000 T00330022
KEWR 222351Z 03010KT 10SM BKN011 OVC017 04/02 A3063 RMK AO2 RAE06 SLP373 BKN V SCT P0000 60014 T00390022 10072 20028 50011
KEWR 230051Z 07008KT 10SM SCT014 BKN030 OVC060 04/02 A3061 RMK AO2 SLP366 T00440022
KEWR 230151Z 04008KT 10SM BKN015 BKN020 OVC032 04/02 A3065 RMK AO2 SLP378 T00390017
KEWR 230251Z 04007KT 10SM BKN015 OVC020 04/01 A3065 RMK AO2 SLP377 T00390011 53004
KEWR 230351Z 05008KT 10SM SCT015 BKN020 OVC055 04/01 A3066 RMK AO2 SLP380 T00390006
KEWR 230451Z 04006KT 10SM BKN017 OVC023 04/01 A3066 RMK AO2 SLP380 T00390006 401500028
KEWR 230551Z 04009KT 10SM OVC012 03/01 A3067 RMK AO2 SLP385 T00330011 10044 20033 53008